Time;durP1;ratioP1;P1;durP2;ratioP2;P2;SDS_P1;SDS_P2;PMS_P1;PMS_P2;Temp;Humidity;BMP_temperature;BMP_pressure;BME280_temperature;BME280_humidity;BME280_pressure;Samples;Min_cycle;Max_cycle;Signal;HPM_P1;HPM_P2
2023/09/03 00:00:28;;;;;;;;;9.50;9.50;;;;;22.52;65.92;99691.09;5076054;28;46363;-74
2023/09/03 00:02:54;;;;;;;;;8.00;8.00;;;;;22.52;65.94;99692.94;5068014;28;45447;-73
2023/09/03 00:05:20;;;;;;;;;10.00;10.00;;;;;22.50;65.96;99693.06;5069677;28;45434;-73
2023/09/03 00:07:45;;;;;;;;;10.00;8.00;;;;;22.44;66.34;99696.25;5091222;27;45527;-73
2023/09/03 00:10:11;;;;;;;;;11.00;10.75;;;;;22.41;66.43;99701.88;5075930;28;46225;-73
2023/09/03 00:12:36;;;;;;;;;8.25;8.25;;;;;22.35;66.62;99699.66;5075976;28;45390;-74
2023/09/03 00:15:02;;;;;;;;;9.25;9.25;;;;;22.32;67.00;99707.94;5074344;28;45745;-74
2023/09/03 00:17:28;;;;;;;;;8.00;7.40;;;;;22.26;67.15;99711.13;5076019;28;45352;-73
2023/09/03 00:19:53;;;;;;;;;9.75;8.00;;;;;22.22;66.99;99717.72;5075828;28;45328;-73
2023/09/03 00:22:18;;;;;;;;;8.25;7.75;;;;;22.19;66.95;99712.59;5071265;28;45347;-73
2023/09/03 00:24:44;;;;;;;;;10.50;9.50;;;;;22.18;67.15;99717.09;5068856;28;45710;-73
2023/09/03 00:27:09;;;;;;;;;9.00;8.75;;;;;22.16;67.30;99723.56;5069218;28;45410;-74
2023/09/03 00:29:35;;;;;;;;;8.00;7.75;;;;;22.12;67.27;99724.81;5075481;27;46170;-73
2023/09/03 00:32:01;;;;;;;;;9.00;9.00;;;;;22.09;67.82;99719.66;5069401;28;45393;-73
2023/09/03 00:34:26;;;;;;;;;7.00;6.25;;;;;22.04;67.85;99713.78;5068613;28;45337;-73
2023/09/03 00:36:52;;;;;;;;;9.75;9.00;;;;;22.02;67.86;99718.41;5068975;28;45566;-74
2023/09/03 00:39:18;;;;;;;;;10.00;8.25;;;;;21.99;68.33;99715.94;5075231;28;45550;-73
2023/09/03 00:41:45;;;;;;;;;7.60;7.20;;;;;21.95;68.38;99726.91;5073835;28;45357;-73
2023/09/03 00:44:10;;;;;;;;;11.40;10.60;;;;;21.94;68.37;99732.44;5074840;28;45451;-73
2023/09/03 00:46:36;;;;;;;;;11.50;9.00;;;;;21.90;68.19;99726.44;5073928;28;45546;-73
2023/09/03 00:49:01;;;;;;;;;10.50;9.00;;;;;21.88;68.70;99731.06;5072491;28;45456;-73
2023/09/03 00:51:28;;;;;;;;;8.25;8.25;;;;;21.87;68.66;99731.16;5060687;28;45313;-73
2023/09/03 00:53:54;;;;;;;;;8.20;6.80;;;;;21.85;69.00;99728.59;5061822;28;45346;-73
2023/09/03 00:56:21;;;;;;;;;9.00;9.00;;;;;21.85;68.86;99731.28;5073102;28;45593;-73
2023/09/03 00:58:47;;;;;;;;;10.00;9.00;;;;;21.85;68.59;99731.28;5075591;28;45474;-73
2023/09/03 01:01:13;;;;;;;;;12.80;11.60;;;;;21.89;68.54;99742.66;5061910;27;45443;-73
2023/09/03 01:03:39;;;;;;;;;11.20;10.40;;;;;21.89;69.02;99738.13;5075821;28;45376;-73
2023/09/03 01:06:06;;;;;;;;;7.80;7.80;;;;;21.84;68.90;99737.63;5075337;28;45657;-73
2023/09/03 01:08:32;;;;;;;;;8.00;8.00;;;;;21.79;69.16;99728.19;5071480;28;46095;-73
2023/09/03 01:11:21;;;;;;;;;12.50;10.25;;;;;21.77;69.00;99730.19;5074374;28;45483;-73
2023/09/03 01:14:08;;;;;;;;;10.40;9.40;;;;;21.78;69.18;99735.44;5065362;28;45445;-73
2023/09/03 01:17:10;;;;;;;;;9.25;9.25;;;;;21.78;69.58;99740.81;5074604;28;45434;-74
2023/09/03 01:19:42;;;;;;;;;7.25;6.25;;;;;21.83;69.51;99748.47;5057914;28;45467;-74
2023/09/03 01:22:36;;;;;;;;;9.80;8.80;;;;;21.85;69.28;99736.66;5072013;28;45367;-73
2023/09/03 01:25:21;;;;;;;;;11.00;9.75;;;;;21.86;69.63;99729.47;5062511;28;45348;-73
2023/09/03 01:28:00;;;;;;;;;10.25;10.00;;;;;21.85;69.86;99739.34;5066371;28;45439;-74
2023/09/03 01:30:26;;;;;;;;;10.40;10.00;;;;;21.85;70.25;99738.47;5074918;28;46240;-73
2023/09/03 01:32:53;;;;;;;;;11.00;11.00;;;;;21.84;69.93;99734.09;5072420;28;45392;-73
2023/09/03 01:35:20;;;;;;;;;10.50;10.50;;;;;21.85;70.23;99738.47;5074852;28;45435;-73
2023/09/03 01:37:46;;;;;;;;;10.25;9.75;;;;;21.84;70.66;99743.00;5074586;28;45286;-73
2023/09/03 01:40:11;;;;;;;;;10.25;10.25;;;;;21.84;70.63;99739.44;5074022;28;46324;-73
2023/09/03 01:42:37;;;;;;;;;11.00;9.25;;;;;21.84;70.48;99739.44;5074587;28;45433;-74
2023/09/03 01:45:03;;;;;;;;;14.50;10.00;;;;;21.83;70.83;99745.78;5074765;27;45367;-72
2023/09/03 01:47:47;;;;;;;;;11.50;10.00;;;;;21.81;70.87;99745.06;5074504;28;45476;-72
2023/09/03 01:50:24;;;;;;;;;12.00;11.00;;;;;21.82;70.94;99741.41;5074720;28;45329;-73
2023/09/03 01:53:07;;;;;;;;;9.60;8.60;;;;;21.81;71.10;99751.28;5067033;28;45427;-73
2023/09/03 01:55:36;;;;;;;;;11.80;11.80;;;;;21.80;70.49;99740.66;5077817;28;45538;-73
2023/09/03 01:58:05;;;;;;;;;11.50;9.75;;;;;21.82;70.69;99752.13;5078094;28;45435;-72
2023/09/03 02:00:32;;;;;;;;;11.50;10.25;;;;;21.83;70.67;99748.47;5076271;28;46579;-72
2023/09/03 02:03:00;;;;;;;;;10.40;10.40;;;;;21.83;70.74;99743.09;5077109;28;45411;-72
2023/09/03 02:05:25;;;;;;;;;4.00;4.00;;;;;21.82;70.68;99755.69;5070577;28;45492;-72
2023/09/03 02:07:51;;;;;;;;;13.50;11.00;;;;;21.82;70.46;99754.81;5068403;28;45436;-73
2023/09/03 02:10:17;;;;;;;;;10.80;10.20;;;;;21.81;70.65;99753.97;5063862;27;45454;-72
2023/09/03 02:12:43;;;;;;;;;11.00;8.75;;;;;21.82;70.52;99754.81;5076478;28;45427;-72
2023/09/03 02:15:08;;;;;;;;;14.00;11.50;;;;;21.79;70.48;99758.59;5077725;28;45510;-73
2023/09/03 02:17:34;;;;;;;;;11.50;10.00;;;;;21.78;70.94;99754.22;5076561;28;45393;-73
2023/09/03 02:19:59;;;;;;;;;9.25;9.25;;;;;21.78;70.84;99739.94;5067205;28;45619;-72
2023/09/03 02:22:24;;;;;;;;;10.00;10.00;;;;;21.76;70.59;99750.78;5074664;28;45280;-72
2023/09/03 02:24:51;;;;;;;;;11.00;10.75;;;;;21.77;70.48;99759.69;5064070;27;45483;-72
2023/09/03 02:27:16;;;;;;;;;12.25;10.00;;;;;21.76;70.84;99758.84;5077207;28;45309;-72
2023/09/03 02:29:42;;;;;;;;;9.50;8.00;;;;;21.78;71.01;99748.00;5064082;28;45702;-72
2023/09/03 02:32:08;;;;;;;;;10.00;9.25;;;;;21.76;70.54;99736.50;5077533;28;45527;-73
2023/09/03 02:34:36;;;;;;;;;11.40;11.40;;;;;21.75;70.22;99740.16;5076524;28;45472;-72
2023/09/03 02:37:02;;;;;;;;;11.50;10.75;;;;;21.73;70.24;99745.66;5082519;27;45333;-72
2023/09/03 02:39:27;;;;;;;;;10.20;10.00;;;;;21.72;70.45;99753.81;5076795;27;46698;-72
2023/09/03 02:41:53;;;;;;;;;11.00;10.50;;;;;21.71;70.35;99755.66;5075347;28;45509;-72
2023/09/03 02:44:18;;;;;;;;;9.75;9.00;;;;;21.71;70.45;99760.16;5077325;27;45951;-72
2023/09/03 02:46:44;;;;;;;;;11.50;11.00;;;;;21.70;70.36;99758.44;5074942;28;45360;-72
2023/09/03 02:49:10;;;;;;;;;12.75;11.00;;;;;21.69;70.37;99767.47;5065510;28;46449;-73
2023/09/03 02:51:38;;;;;;;;;11.25;10.50;;;;;21.64;70.80;99767.81;5075355;28;45479;-72
2023/09/03 02:54:03;;;;;;;;;8.60;8.20;;;;;21.61;71.02;99759.16;5076952;28;45359;-72
2023/09/03 02:56:30;;;;;;;;;11.00;9.00;;;;;21.58;71.59;99755.72;5076649;28;45357;-72
2023/09/03 02:58:55;;;;;;;;;11.00;10.40;;;;;21.54;71.79;99750.69;5076822;28;45506;-72
2023/09/03 03:01:21;;;;;;;;;13.50;10.50;;;;;21.53;71.73;99751.66;5076667;28;45388;-72
2023/09/03 03:03:47;;;;;;;;;12.25;10.75;;;;;21.51;72.02;99756.28;5074298;27;45364;-72
2023/09/03 03:06:14;;;;;;;;;10.75;8.50;;;;;21.47;72.29;99761.03;5075262;28;45449;-72
2023/09/03 03:08:39;;;;;;;;;11.80;9.80;;;;;21.45;72.04;99767.50;5068438;28;45492;-72
2023/09/03 03:11:10;;;;;;;;;10.50;9.75;;;;;21.42;72.12;99768.56;5064402;28;45385;-71
2023/09/03 03:13:37;;;;;;;;;10.50;9.50;;;;;21.40;72.75;99765.16;5073702;27;45432;-72
2023/09/03 03:16:07;;;;;;;;;11.50;10.00;;;;;21.38;72.51;99763.53;5076595;28;45396;-73
2023/09/03 03:18:35;;;;;;;;;11.80;10.60;;;;;21.36;72.69;99758.28;5071089;28;45489;-72
2023/09/03 03:21:08;;;;;;;;;8.60;8.40;;;;;21.33;72.74;99771.94;5075874;28;45417;-72
2023/09/03 03:23:38;;;;;;;;;10.25;6.75;;;;;21.33;72.85;99777.28;5073270;28;45369;-72
2023/09/03 03:26:04;;;;;;;;;9.00;9.00;;;;;21.32;73.33;99774.72;5075976;28;45583;-72
2023/09/03 03:28:31;;;;;;;;;11.75;11.00;;;;;21.32;73.30;99772.03;5076084;28;46646;-72
2023/09/03 03:31:18;;;;;;;;;10.00;10.00;;;;;21.29;73.21;99775.78;5076206;28;45343;-73
2023/09/03 03:33:46;;;;;;;;;10.25;10.25;;;;;21.28;73.31;99783.97;5073829;28;45419;-72
2023/09/03 03:36:20;;;;;;;;;10.00;10.00;;;;;21.26;73.54;99777.88;5076525;28;45361;-72
2023/09/03 03:38:46;;;;;;;;;13.50;11.00;;;;;21.24;73.33;99776.16;5074123;28;46753;-71
2023/09/03 03:41:14;;;;;;;;;9.60;9.20;;;;;21.22;73.32;99769.19;5076009;28;45443;-71
2023/09/03 03:43:42;;;;;;;;;10.00;10.00;;;;;21.21;73.51;99772.84;5074457;28;45474;-72
2023/09/03 03:46:09;;;;;;;;;11.50;10.25;;;;;21.18;73.28;99768.53;5076288;28;45526;-72
2023/09/03 03:48:35;;;;;;;;;12.80;12.00;;;;;21.14;73.76;99767.03;5075865;28;45476;-71
2023/09/03 03:51:02;;;;;;;;;9.75;9.75;;;;;21.12;74.25;99774.31;5072666;28;45395;-72
2023/09/03 03:53:27;;;;;;;;;11.80;9.80;;;;;21.09;74.22;99768.34;5072167;28;45441;-72
2023/09/03 03:56:06;;;;;;;;;10.50;10.50;;;;;21.05;74.06;99765.03;5056292;28;45531;-72
2023/09/03 03:58:34;;;;;;;;;13.20;10.60;;;;;21.02;74.54;99761.72;5072897;28;46386;-71
2023/09/03 04:01:00;;;;;;;;;10.60;8.60;;;;;20.98;74.83;99760.22;5075470;28;45384;-71
2023/09/03 04:03:29;;;;;;;;;10.75;8.25;;;;;20.97;74.82;99769.22;5075253;28;45559;-72
2023/09/03 04:06:00;;;;;;;;;14.00;12.75;;;;;20.95;74.52;99769.31;5075618;28;45258;-72
2023/09/03 04:08:27;;;;;;;;;11.00;11.00;;;;;20.94;74.99;99767.66;5074502;28;45539;-72
2023/09/03 04:11:00;;;;;;;;;15.20;13.40;;;;;20.92;75.25;99766.91;5074591;28;45396;-71
2023/09/03 04:13:26;;;;;;;;;13.00;11.80;;;;;20.91;75.30;99762.50;5072864;28;45429;-71
2023/09/03 04:15:53;;;;;;;;;9.60;9.60;;;;;20.89;75.21;99762.59;5075393;28;45447;-72
2023/09/03 04:18:18;;;;;;;;;10.40;9.20;;;;;20.87;75.44;99759.19;5073562;28;45637;-71
2023/09/03 04:20:44;;;;;;;;;10.25;10.25;;;;;20.85;75.11;99763.78;5075690;28;45508;-72
2023/09/03 04:23:09;;;;;;;;;12.00;11.50;;;;;20.86;75.67;99765.50;5069380;27;45404;-73
2023/09/03 04:25:34;;;;;;;;;10.25;10.25;;;;;20.85;75.74;99761.09;5075077;27;45649;-71
2023/09/03 04:28:00;;;;;;;;;13.50;11.75;;;;;20.84;75.79;99762.06;5075872;28;45512;-72
2023/09/03 04:30:25;;;;;;;;;12.50;11.00;;;;;20.81;75.65;99759.59;5064311;27;45380;-71
2023/09/03 04:32:51;;;;;;;;;12.50;12.00;;;;;20.81;75.88;99762.28;5074400;28;45664;-71
2023/09/03 04:35:16;;;;;;;;;9.00;8.75;;;;;20.79;75.44;99766.03;5073959;28;45952;-72
2023/09/03 04:37:42;;;;;;;;;11.50;11.00;;;;;20.78;75.29;99767.88;5067262;28;46877;-72
2023/09/03 04:40:09;;;;;;;;;11.00;10.25;;;;;20.75;75.65;99768.09;5074805;27;45405;-71
2023/09/03 04:42:34;;;;;;;;;11.80;10.60;;;;;20.72;75.34;99771.00;5071796;28;45440;-71
2023/09/03 04:44:59;;;;;;;;;9.00;9.00;;;;;20.70;75.54;99774.75;5074650;28;45455;-73
2023/09/03 04:47:25;;;;;;;;;10.00;10.00;;;;;20.68;75.68;99785.56;5069430;27;45596;-71
2023/09/03 04:49:50;;;;;;;;;11.00;11.00;;;;;20.67;76.11;99788.38;5074974;28;45466;-73
2023/09/03 04:52:16;;;;;;;;;12.00;10.25;;;;;20.63;76.24;99793.06;5074472;28;45557;-71
2023/09/03 04:54:41;;;;;;;;;13.00;11.00;;;;;20.63;76.48;99797.56;5073749;28;45495;-71
2023/09/03 04:57:07;;;;;;;;;11.00;10.75;;;;;20.62;76.63;99806.56;5074435;28;46244;-71
2023/09/03 04:59:33;;;;;;;;;11.40;11.20;;;;;20.59;76.39;99804.13;5074725;28;45537;-71
2023/09/03 05:01:58;;;;;;;;;10.50;10.50;;;;;20.59;76.57;99812.19;5074695;28;45598;-72
2023/09/03 05:04:23;;;;;;;;;9.75;9.25;;;;;20.58;76.62;99805.97;5074769;28;45497;-73
2023/09/03 05:06:49;;;;;;;;;12.75;12.25;;;;;20.57;76.29;99811.41;5074490;28;45644;-71
2023/09/03 05:09:14;;;;;;;;;12.50;11.75;;;;;20.54;76.71;99815.16;5074563;28;45493;-71
2023/09/03 05:11:42;;;;;;;;;15.50;13.25;;;;;20.52;76.54;99820.63;5073025;28;45449;-71
2023/09/03 05:14:07;;;;;;;;;12.75;12.00;;;;;20.51;76.70;99835.00;5074588;28;45400;-71
2023/09/03 05:16:33;;;;;;;;;11.75;11.25;;;;;20.47;76.65;99832.63;5073962;28;45746;-73
2023/09/03 05:19:04;;;;;;;;;11.75;10.25;;;;;20.46;76.77;99834.44;5074879;28;45408;-72
2023/09/03 05:21:30;;;;;;;;;12.20;11.00;;;;;20.46;77.04;99839.78;5074819;28;45408;-71
2023/09/03 05:23:55;;;;;;;;;11.25;10.25;;;;;20.46;76.95;99836.25;5073967;28;45470;-71
2023/09/03 05:26:20;;;;;;;;;11.25;11.25;;;;;20.47;76.95;99837.97;5074058;28;45445;-71
2023/09/03 05:28:46;;;;;;;;;9.75;9.75;;;;;20.46;76.75;99850.50;5072411;28;45357;-73
2023/09/03 05:31:11;;;;;;;;;11.50;9.75;;;;;20.49;76.93;99850.31;5074794;28;45366;-73
2023/09/03 05:33:37;;;;;;;;;10.00;10.00;;;;;20.53;76.65;99851.81;5072799;28;45344;-71
2023/09/03 05:36:02;;;;;;;;;10.75;9.75;;;;;20.53;76.91;99851.81;5074469;28;45541;-71
2023/09/03 05:38:28;;;;;;;;;10.00;9.75;;;;;20.51;76.70;99853.75;5069950;28;45632;-71
2023/09/03 05:40:53;;;;;;;;;14.75;11.50;;;;;20.53;77.01;99865.22;5074292;28;45371;-70
2023/09/03 05:43:19;;;;;;;;;13.50;12.00;;;;;20.53;76.89;99859.00;5073617;28;45593;-70
2023/09/03 05:45:45;;;;;;;;;15.50;14.00;;;;;20.51;76.68;99864.47;5072097;27;46186;-71
2023/09/03 05:48:11;;;;;;;;;20.20;16.80;;;;;20.50;77.44;99868.09;5066346;27;45443;-70
2023/09/03 05:50:37;;;;;;;;;18.50;18.50;;;;;20.51;77.41;99869.81;5074043;27;45465;-70
2023/09/03 05:53:03;;;;;;;;;13.00;13.00;;;;;20.51;77.09;99872.50;5067067;28;45455;-70
2023/09/03 05:55:29;;;;;;;;;17.75;15.75;;;;;20.52;77.02;99868.00;5073818;28;45965;-70
2023/09/03 05:57:54;;;;;;;;;15.00;14.00;;;;;20.50;76.83;99869.91;5074279;28;45418;-70
2023/09/03 06:00:19;;;;;;;;;16.75;13.75;;;;;20.52;77.33;99871.53;5074135;28;45446;-70
2023/09/03 06:02:45;;;;;;;;;15.75;13.00;;;;;20.54;77.14;99872.28;5072612;28;45831;-71
2023/09/03 06:05:10;;;;;;;;;16.00;14.25;;;;;20.57;77.31;99878.41;5074263;27;46193;-70
2023/09/03 06:07:36;;;;;;;;;16.75;15.25;;;;;20.59;77.19;99882.69;5068978;28;45566;-70
2023/09/03 06:10:01;;;;;;;;;16.25;15.00;;;;;20.60;77.35;99889.78;5064989;28;45395;-70
2023/09/03 06:12:27;;;;;;;;;13.75;13.00;;;;;20.64;76.58;99885.03;5062425;28;45480;-70
2023/09/03 06:14:52;;;;;;;;;11.25;11.25;;;;;20.66;77.17;99886.66;5074089;28;45359;-70
2023/09/03 06:17:17;;;;;;;;;8.00;8.00;;;;;20.68;76.75;99886.53;5073199;27;45405;-70
2023/09/03 06:19:46;;;;;;;;;12.75;12.75;;;;;20.70;76.41;99887.28;5070101;28;45374;-71
2023/09/03 06:22:11;;;;;;;;;12.00;12.00;;;;;20.72;76.33;99893.41;5064277;28;45512;-72
2023/09/03 06:24:37;;;;;;;;;11.25;11.00;;;;;20.74;76.26;99892.34;5073125;28;46614;-70
2023/09/03 06:27:02;;;;;;;;;14.00;12.50;;;;;20.75;76.52;99891.38;5072662;28;45419;-70
2023/09/03 06:29:27;;;;;;;;;12.50;11.75;;;;;20.77;76.07;99897.50;5073878;28;45498;-70
2023/09/03 06:31:53;;;;;;;;;13.00;13.00;;;;;20.79;76.46;99903.59;5073405;27;45848;-70
2023/09/03 06:34:20;;;;;;;;;8.25;8.00;;;;;20.83;76.02;99912.28;5073760;28;46657;-72
2023/09/03 06:36:45;;;;;;;;;11.60;10.40;;;;;20.85;76.23;99905.00;5072402;28;45467;-71
2023/09/03 06:39:11;;;;;;;;;8.50;8.00;;;;;20.88;76.06;99907.47;5072380;28;45452;-72
2023/09/03 06:41:37;;;;;;;;;12.75;10.75;;;;;20.92;76.12;99906.28;5076031;28;45379;-73
2023/09/03 06:44:02;;;;;;;;;13.00;13.00;;;;;20.97;75.55;99913.97;5076477;28;46614;-72
2023/09/03 06:46:27;;;;;;;;;11.25;10.50;;;;;21.01;75.42;99908.31;5076078;27;45371;-71
2023/09/03 06:48:54;;;;;;;;;10.25;10.25;;;;;21.07;75.23;99904.34;5076137;28;45435;-72
2023/09/03 06:51:19;;;;;;;;;9.75;9.75;;;;;21.11;75.35;99904.03;5076731;28;45372;-71
2023/09/03 06:53:45;;;;;;;;;12.25;12.00;;;;;21.17;75.53;99900.88;5076669;28;46616;-71
2023/09/03 06:56:10;;;;;;;;;11.50;10.75;;;;;21.21;75.24;99891.69;5076577;27;45404;-71
2023/09/03 06:58:35;;;;;;;;;11.00;10.25;;;;;21.27;74.85;99892.22;5074940;28;45580;-71
2023/09/03 07:01:02;;;;;;;;;12.25;11.25;;;;;21.31;75.01;99891.03;5076604;28;45485;-72
2023/09/03 07:03:28;;;;;;;;;13.50;13.50;;;;;21.37;74.55;99895.97;5073483;27;45453;-72
2023/09/03 07:05:54;;;;;;;;;11.80;11.00;;;;;21.42;74.24;99901.84;5066683;28;45409;-72
2023/09/03 07:08:19;;;;;;;;;12.50;12.50;;;;;21.48;74.14;99901.38;5075303;28;45390;-72
2023/09/03 07:10:44;;;;;;;;;13.00;13.00;;;;;21.54;73.14;99900.97;5076518;28;45581;-73
2023/09/03 07:13:10;;;;;;;;;13.50;10.25;;;;;21.61;73.00;99902.25;5076041;28;45478;-73
2023/09/03 07:15:36;;;;;;;;;12.20;12.20;;;;;21.68;73.01;99898.13;5076766;27;45436;-72
2023/09/03 07:18:02;;;;;;;;;14.00;13.00;;;;;21.77;72.74;99900.13;5075013;28;45743;-72
2023/09/03 07:20:28;;;;;;;;;13.00;12.25;;;;;21.85;72.80;99900.41;5076655;28;45442;-72
2023/09/03 07:22:53;;;;;;;;;12.00;11.50;;;;;21.95;72.27;99900.59;5062056;28;45380;-72
2023/09/03 07:25:19;;;;;;;;;14.50;12.50;;;;;22.04;72.10;99891.88;5076080;28;45450;-72
2023/09/03 07:27:44;;;;;;;;;15.50;13.25;;;;;22.14;71.54;99892.88;5075286;28;45494;-72
2023/09/03 07:30:10;;;;;;;;;12.00;12.00;;;;;22.21;71.14;99894.16;5075936;27;45383;-72
2023/09/03 07:32:37;;;;;;;;;16.00;15.00;;;;;22.28;71.09;99890.03;5075765;28;46277;-71
2023/09/03 07:35:05;;;;;;;;;14.20;13.80;;;;;22.36;70.50;99900.19;5076307;28;45490;-72
2023/09/03 07:37:32;;;;;;;;;14.20;14.00;;;;;22.43;70.53;99896.06;5067421;28;45353;-72
2023/09/03 07:39:57;;;;;;;;;17.00;13.25;;;;;22.48;69.87;99899.25;5075458;28;45388;-70
2023/09/03 07:42:22;;;;;;;;;12.00;12.00;;;;;22.55;70.36;99892.44;5074590;28;46502;-72
2023/09/03 07:44:48;;;;;;;;;13.50;11.00;;;;;22.62;69.98;99884.75;5087486;27;45409;-73
2023/09/03 07:47:13;;;;;;;;;13.25;13.25;;;;;22.70;69.88;99889.53;5069606;28;45518;-71
2023/09/03 07:49:39;;;;;;;;;13.25;13.25;;;;;22.77;69.53;99883.59;5073489;28;45554;-71
2023/09/03 07:52:06;;;;;;;;;13.25;11.25;;;;;22.86;69.08;99884.69;5070446;28;47752;-71
2023/09/03 07:54:31;;;;;;;;;13.20;13.20;;;;;22.92;68.96;99890.44;5070551;28;45435;-71
2023/09/03 07:56:57;;;;;;;;;9.75;9.75;;;;;22.99;68.23;99888.13;5059907;28;45404;-71
2023/09/03 07:59:22;;;;;;;;;15.50;11.50;;;;;23.07;68.43;99893.75;5075013;27;45448;-71
2023/09/03 08:01:48;;;;;;;;;9.00;9.00;;;;;23.14;68.06;99888.72;5075531;27;45516;-72
2023/09/03 08:04:13;;;;;;;;;14.25;12.75;;;;;23.23;67.87;99888.00;5075532;27;45536;-71
2023/09/03 08:06:38;;;;;;;;;14.00;11.00;;;;;23.30;67.01;99878.44;5071961;28;45357;-71
2023/09/03 08:09:05;;;;;;;;;10.75;10.00;;;;;23.37;67.23;99879.69;5075170;28;45576;-72
2023/09/03 08:11:31;;;;;;;;;12.20;12.20;;;;;23.44;67.11;99885.44;5073847;28;46449;-70
2023/09/03 08:13:59;;;;;;;;;11.50;11.00;;;;;23.52;66.93;99883.84;5074971;27;45576;-73
2023/09/03 08:16:24;;;;;;;;;11.00;10.20;;;;;23.58;66.30;99874.44;5061706;28;45431;-71
2023/09/03 08:18:49;;;;;;;;;9.75;9.75;;;;;23.66;65.96;99878.19;5074681;28;45423;-73
2023/09/03 08:21:15;;;;;;;;;10.75;10.75;;;;;23.72;66.10;99879.53;5074871;28;46512;-72
2023/09/03 08:23:43;;;;;;;;;10.75;10.00;;;;;23.78;65.87;99881.72;5074695;28;45768;-70
2023/09/03 08:26:09;;;;;;;;;10.80;10.80;;;;;23.84;65.70;99878.50;5074502;28;45404;-70
2023/09/03 08:28:34;;;;;;;;;14.25;14.25;;;;;23.90;65.77;99883.41;5073646;27;45781;-71
2023/09/03 08:31:00;;;;;;;;;12.00;11.25;;;;;23.97;65.24;99878.34;5063439;28;45648;-72
2023/09/03 08:33:25;;;;;;;;;14.75;13.50;;;;;24.03;64.96;99888.59;5071399;28;45433;-72
2023/09/03 08:35:51;;;;;;;;;12.00;10.00;;;;;24.11;65.17;99891.53;5074553;28;45501;-70
2023/09/03 08:38:16;;;;;;;;;12.00;11.00;;;;;24.20;64.33;99892.59;5079651;27;45535;-72
2023/09/03 08:40:43;;;;;;;;;11.75;11.00;;;;;24.26;64.29;99887.56;5074653;27;45711;-71
2023/09/03 08:43:10;;;;;;;;;14.80;14.60;;;;;24.32;64.12;99886.19;5075245;28;45519;-72
2023/09/03 08:45:46;;;;;;;;;12.20;12.20;;;;;24.38;64.25;99885.66;5071259;27;45516;-72
2023/09/03 08:48:13;;;;;;;;;12.40;11.60;;;;;24.46;64.59;99891.28;5072663;28;45441;-72
2023/09/03 08:50:39;;;;;;;;;14.00;12.20;;;;;24.55;64.58;99903.09;5073024;28;48018;-72
2023/09/03 08:53:05;;;;;;;;;11.60;10.60;;;;;24.60;64.23;99895.50;5074369;28;45425;-72
2023/09/03 08:55:33;;;;;;;;;11.00;10.80;;;;;24.65;63.90;99891.38;5074840;27;45549;-71
2023/09/03 08:57:59;;;;;;;;;13.00;12.00;;;;;24.71;63.81;99884.63;5074168;28;45371;-71
2023/09/03 09:00:25;;;;;;;;;10.80;10.80;;;;;24.78;63.50;99898.44;5074499;27;45521;-72
2023/09/03 09:02:52;;;;;;;;;10.00;10.00;;;;;24.84;63.48;99895.19;5073143;28;45355;-72
2023/09/03 09:05:18;;;;;;;;;11.60;9.80;;;;;24.88;63.50;99893.94;5074547;28;45372;-70
2023/09/03 09:07:46;;;;;;;;;13.75;11.50;;;;;24.93;62.87;99895.28;5073961;28;45459;-71
2023/09/03 09:10:16;;;;;;;;;13.00;11.80;;;;;24.97;63.36;99902.13;5070651;28;46317;-71
2023/09/03 09:12:56;;;;;;;;;12.80;11.00;;;;;25.02;63.19;99897.19;5064325;28;45527;-71
2023/09/03 09:15:21;;;;;;;;;12.40;11.20;;;;;25.03;63.12;99901.59;5074178;28;45427;-72
2023/09/03 09:17:48;;;;;;;;;14.00;14.00;;;;;25.07;63.52;99904.03;5073988;27;45339;-72
2023/09/03 09:20:14;;;;;;;;;11.60;10.00;;;;;25.10;63.89;99914.56;5073828;28;45864;-71
2023/09/03 09:22:44;;;;;;;;;13.00;12.40;;;;;25.13;63.25;99908.91;5069751;28;45433;-71
2023/09/03 09:25:16;;;;;;;;;12.20;12.20;;;;;25.19;63.11;99914.59;5072486;28;45471;-71
2023/09/03 09:27:42;;;;;;;;;11.40;11.20;;;;;25.23;62.72;99915.19;5073778;28;45490;-72
2023/09/03 09:30:16;;;;;;;;;13.25;12.00;;;;;25.28;62.82;99916.50;5066438;28;45705;-72
2023/09/03 09:32:43;;;;;;;;;12.40;11.60;;;;;25.33;62.63;99913.38;5101797;27;45531;-70
2023/09/03 09:35:09;;;;;;;;;9.20;8.80;;;;;25.38;62.70;99916.53;5074317;28;45426;-70
2023/09/03 09:37:40;;;;;;;;;13.50;12.00;;;;;25.43;62.12;99906.16;5071804;28;45464;-71
2023/09/03 09:40:09;;;;;;;;;9.40;9.40;;;;;25.50;61.80;99898.34;5073583;28;46179;-69
2023/09/03 09:42:50;;;;;;;;;11.80;10.80;;;;;25.51;61.61;99897.38;5069029;28;45354;-70
2023/09/03 09:45:16;;;;;;;;;10.20;10.20;;;;;25.53;61.28;99890.00;5067311;28;45359;-70
2023/09/03 09:47:41;;;;;;;;;11.25;10.00;;;;;25.56;61.49;99889.72;5073267;27;45593;-72
2023/09/03 09:50:07;;;;;;;;;21.25;15.00;;;;;25.59;61.49;99887.59;5073100;27;46021;-70
2023/09/03 09:52:35;;;;;;;;;13.00;11.00;;;;;25.62;61.04;99891.91;5072135;28;45390;-72
2023/09/03 09:55:01;;;;;;;;;10.40;10.00;;;;;25.66;60.37;99882.50;5073784;28;45450;-70
2023/09/03 09:57:27;;;;;;;;;11.25;9.00;;;;;25.68;60.01;99870.59;5071495;28;45803;-70
2023/09/03 09:59:55;;;;;;;;;12.40;12.20;;;;;25.69;59.88;99866.03;5073778;28;47327;-70
2023/09/03 10:02:22;;;;;;;;;12.00;10.60;;;;;25.73;59.59;99857.53;5073540;28;45702;-70
2023/09/03 10:04:50;;;;;;;;;11.00;9.60;;;;;25.75;59.68;99857.38;5074011;28;45457;-71
2023/09/03 10:07:15;;;;;;;;;13.20;10.20;;;;;25.78;59.25;99857.13;5072637;28;45394;-70
2023/09/03 10:09:43;;;;;;;;;12.00;12.00;;;;;25.85;58.40;99851.97;5073096;28;46070;-69
2023/09/03 10:12:09;;;;;;;;;12.20;10.60;;;;;25.90;59.14;99855.97;5072536;28;45415;-70
2023/09/03 10:14:35;;;;;;;;;9.80;9.40;;;;;25.98;58.16;99856.09;5073024;28;45321;-70
2023/09/03 10:17:03;;;;;;;;;14.60;12.00;;;;;26.04;58.05;99846.59;5069983;28;45564;-70
2023/09/03 10:19:41;;;;;;;;;12.00;12.00;;;;;26.11;57.20;99850.44;5076414;28;46224;-70
2023/09/03 10:22:09;;;;;;;;;11.20;11.20;;;;;26.17;57.04;99849.00;5074858;28;45661;-70
2023/09/03 10:24:36;;;;;;;;;12.20;11.00;;;;;26.21;56.63;99843.16;5074769;28;45369;-71
2023/09/03 10:27:04;;;;;;;;;11.00;10.80;;;;;26.28;55.76;99849.72;5076398;28;45505;-70
2023/09/03 10:29:32;;;;;;;;;10.40;10.40;;;;;26.34;55.27;99841.06;5073761;28;45494;-70
2023/09/03 10:32:01;;;;;;;;;12.00;10.00;;;;;26.41;54.71;99836.78;5075961;28;45318;-71
2023/09/03 10:34:27;;;;;;;;;10.20;9.00;;;;;26.48;54.98;99825.41;5076780;27;45492;-71
2023/09/03 10:37:05;;;;;;;;;10.00;9.25;;;;;26.55;53.76;99821.09;5076276;28;45459;-70
2023/09/03 10:39:31;;;;;;;;;11.00;8.80;;;;;26.61;54.05;99817.81;5063744;28;45589;-70
2023/09/03 10:42:17;;;;;;;;;11.00;11.00;;;;;26.66;53.65;99813.66;5076811;27;45481;-71
2023/09/03 10:44:57;;;;;;;;;8.20;8.20;;;;;26.73;52.81;99820.19;5076423;28;45395;-70
2023/09/03 10:47:23;;;;;;;;;8.80;8.80;;;;;26.80;51.98;99820.47;5076598;27;45310;-71
2023/09/03 10:49:51;;;;;;;;;8.25;8.25;;;;;26.84;51.78;99819.16;5076169;27;45657;-70
2023/09/03 10:52:29;;;;;;;;;8.60;8.60;;;;;26.89;52.20;99816.00;5074954;28;45415;-71
2023/09/03 10:55:18;;;;;;;;;9.60;9.60;;;;;26.94;52.63;99809.19;5075949;28;45439;-70
2023/09/03 10:57:45;;;;;;;;;13.00;12.00;;;;;27.01;52.03;99806.72;5065821;28;45533;-70
2023/09/03 11:00:16;;;;;;;;;11.40;9.80;;;;;27.05;51.33;99808.13;5076134;28;46664;-70
2023/09/03 11:02:43;;;;;;;;;10.60;9.60;;;;;27.10;51.17;99803.13;5076255;28;45473;-71
2023/09/03 11:05:16;;;;;;;;;9.60;9.60;;;;;27.16;50.95;99810.63;5075385;28;45529;-71
2023/09/03 11:07:45;;;;;;;;;9.20;9.20;;;;;27.19;51.26;99806.78;5074571;28;45463;-69
2023/09/03 11:10:20;;;;;;;;;8.20;8.20;;;;;27.26;51.48;99803.31;5075981;28;46406;-70
2023/09/03 11:12:49;;;;;;;;;9.60;8.80;;;;;27.30;50.30;99802.03;5065530;28;45393;-69
2023/09/03 11:15:15;;;;;;;;;7.40;7.40;;;;;27.34;50.16;99807.97;5075852;28;45324;-69
2023/09/03 11:17:55;;;;;;;;;9.80;9.00;;;;;27.37;50.05;99811.22;5074904;28;45500;-69
2023/09/03 11:20:27;;;;;;;;;9.60;9.40;;;;;27.41;50.17;99809.94;5075739;28;46609;-70
2023/09/03 11:22:52;;;;;;;;;9.00;9.00;;;;;27.48;50.19;99814.75;5075378;28;45495;-70